createdAt,value
2018-05-21T00:01:53.785Z,44.21
2018-05-21T00:04:24.815Z,44.72
2018-05-21T00:06:55.797Z,44.70
2018-05-21T00:09:26.869Z,44.85
2018-05-21T00:11:57.872Z,44.86
2018-05-21T00:14:28.874Z,44.84
2018-05-21T00:16:59.886Z,44.89
2018-05-21T00:19:30.903Z,44.73
2018-05-21T00:22:01.937Z,44.69
2018-05-21T00:24:32.985Z,44.71
2018-05-21T00:27:03.971Z,44.87
2018-05-21T00:29:34.981Z,44.81
2018-05-21T00:32:05.979Z,44.83
2018-05-21T00:34:36.986Z,44.96
2018-05-21T00:37:08.059Z,45.12
2018-05-21T00:39:39.092Z,45.38
2018-05-21T00:42:10.116Z,45.43
2018-05-21T00:44:41.197Z,45.44
2018-05-21T00:47:12.175Z,45.50
2018-05-21T00:49:43.222Z,45.56
2018-05-21T00:52:14.242Z,45.57
2018-05-21T00:54:57.633Z,45.80
2018-05-21T00:57:28.664Z,45.86
2018-05-21T00:59:59.729Z,46.22
2018-05-21T01:02:30.732Z,46.23
2018-05-21T01:05:01.737Z,46.57
2018-05-21T01:07:32.784Z,46.53
2018-05-21T01:10:03.888Z,46.54
2018-05-21T01:12:34.863Z,46.82
2018-05-21T01:15:05.924Z,46.76
2018-05-21T01:17:36.937Z,46.87
2018-05-21T01:20:08.028Z,46.96
2018-05-21T01:22:39.030Z,47.28
2018-05-21T01:25:10.078Z,47.24
2018-05-21T01:27:41.099Z,47.25
2018-05-21T01:30:12.139Z,47.52
2018-05-21T01:32:43.129Z,47.52
2018-05-21T01:35:14.187Z,47.82
2018-05-21T01:37:45.189Z,48.00
2018-05-21T01:40:16.210Z,48.26
2018-05-21T01:42:47.222Z,48.00
2018-05-21T01:45:18.261Z,48.21
2018-05-21T01:47:49.228Z,48.48
2018-05-21T01:50:20.275Z,48.37
2018-05-21T01:52:51.246Z,48.60
2018-05-21T01:55:22.285Z,48.90
2018-05-21T01:57:53.244Z,49.07
2018-05-21T02:00:24.259Z,48.99
2018-05-21T02:02:55.232Z,48.97
2018-05-21T02:05:26.295Z,49.28
2018-05-21T02:07:57.309Z,49.64
2018-05-21T02:10:28.410Z,50.07
2018-05-21T02:12:59.418Z,50.39
2018-05-21T02:15:30.766Z,50.35
2018-05-21T02:18:01.788Z,50.49
2018-05-21T02:20:32.816Z,50.83
2018-05-21T02:23:03.851Z,50.85
2018-05-21T02:25:34.886Z,51.07
2018-05-21T02:28:05.842Z,51.28
2018-05-21T02:30:36.856Z,51.29
2018-05-21T02:33:07.840Z,51.35
2018-05-21T02:35:39.041Z,51.56
2018-05-21T02:38:10.046Z,51.79
2018-05-21T02:40:41.108Z,51.94
2018-05-21T02:43:12.114Z,52.08
2018-05-21T02:45:43.153Z,52.31
2018-05-21T02:48:14.162Z,52.50
2018-05-21T02:50:45.196Z,52.70
2018-05-21T02:53:16.173Z,52.38
2018-05-21T02:55:47.171Z,52.54
2018-05-21T02:58:18.229Z,53.15
2018-05-21T03:00:49.251Z,53.17
2018-05-21T03:03:20.249Z,52.99
2018-05-21T03:05:51.263Z,53.01
2018-05-21T03:08:22.324Z,53.20
2018-05-21T03:10:53.409Z,52.99
2018-05-21T03:13:24.412Z,53.37
2018-05-21T03:15:55.458Z,53.38
2018-05-21T03:18:26.431Z,53.39
2018-05-21T03:20:57.461Z,53.51
2018-05-21T03:23:28.466Z,53.25
2018-05-21T03:25:59.499Z,53.46
2018-05-21T03:28:30.502Z,53.30
2018-05-21T03:31:01.567Z,53.32
2018-05-21T03:33:32.553Z,53.46
2018-05-21T03:36:03.604Z,53.52
2018-05-21T03:38:34.617Z,53.30
2018-05-21T03:41:05.592Z,53.56
2018-05-21T03:43:36.630Z,53.21
2018-05-21T03:46:07.636Z,52.82
2018-05-21T03:48:38.686Z,52.90
2018-05-21T03:51:09.658Z,52.82
2018-05-21T03:53:40.723Z,52.77
2018-05-21T03:56:11.960Z,52.95
2018-05-21T03:58:55.353Z,52.86
2018-05-21T04:01:29.058Z,52.67
2018-05-21T04:04:00.251Z,52.40
2018-05-21T04:06:32.132Z,52.13
2018-05-21T04:09:03.163Z,52.01
2018-05-21T04:11:34.770Z,52.06
2018-05-21T04:14:05.783Z,52.19
2018-05-21T04:16:36.796Z,52.25
2018-05-21T04:19:07.823Z,52.43
2018-05-21T04:21:38.834Z,52.61
2018-05-21T04:24:09.842Z,52.47
2018-05-21T04:26:40.877Z,52.34
2018-05-21T04:29:11.912Z,52.17
2018-05-21T04:31:42.920Z,52.04
2018-05-21T04:34:13.900Z,51.64
2018-05-21T04:36:45.016Z,51.39
2018-05-21T04:39:16.049Z,51.51
2018-05-21T04:41:47.021Z,51.12
2018-05-21T04:44:18.054Z,51.09
2018-05-21T04:46:49.026Z,51.07
2018-05-21T04:49:19.980Z,51.11
2018-05-21T04:51:51.007Z,51.11
2018-05-21T04:54:22.012Z,51.18
2018-05-21T04:56:53.030Z,51.37
2018-05-21T04:59:24.035Z,51.25
2018-05-21T05:01:55.093Z,50.99
2018-05-21T05:04:26.093Z,50.45
2018-05-21T05:06:57.282Z,50.10
2018-05-21T05:09:28.256Z,49.92
2018-05-21T05:11:59.305Z,49.72
2018-05-21T05:14:30.278Z,49.61
2018-05-21T05:17:01.315Z,49.45
2018-05-21T05:19:32.269Z,49.27
2018-05-21T05:22:03.309Z,48.81
2018-05-21T05:24:34.289Z,48.54
2018-05-21T05:27:05.326Z,48.24
2018-05-21T05:29:36.338Z,47.72
2018-05-21T05:32:07.390Z,47.79
2018-05-21T05:34:38.383Z,47.49
2018-05-21T05:37:09.434Z,47.66
2018-05-21T05:39:40.472Z,47.42
2018-05-21T05:42:11.610Z,47.22
2018-05-21T05:44:42.514Z,46.53
2018-05-21T05:47:13.518Z,46.35
2018-05-21T05:49:44.479Z,46.17
2018-05-21T05:52:15.495Z,45.66
2018-05-21T05:54:46.480Z,41.53
2018-05-21T05:57:17.555Z,30.59
2018-05-21T05:59:48.600Z,22.93
2018-05-21T06:02:19.636Z,18.05
2018-05-21T06:04:50.637Z,15.69
2018-05-21T06:07:21.680Z,13.92
2018-05-21T06:09:52.689Z,13.22
2018-05-21T06:12:23.686Z,11.98
2018-05-21T06:14:54.762Z,11.12
2018-05-21T06:17:25.748Z,10.15
2018-05-21T06:19:56.759Z,9.84
2018-05-21T06:22:27.764Z,9.66
2018-05-21T06:24:58.781Z,8.85
2018-05-21T06:27:29.772Z,8.63
2018-05-21T06:30:00.834Z,8.56
2018-05-21T06:32:31.871Z,8.90
2018-05-21T06:35:02.908Z,9.21
2018-05-21T06:37:34.024Z,9.23
2018-05-21T06:40:05.039Z,8.62
2018-05-21T06:42:36.141Z,7.95
2018-05-21T06:45:07.160Z,7.50
2018-05-21T06:47:45.288Z,7.09
2018-05-21T06:50:16.213Z,6.86
2018-05-21T06:52:47.247Z,6.56
2018-05-21T06:55:18.290Z,6.60
2018-05-21T06:57:49.343Z,6.32
2018-05-21T07:00:20.368Z,5.58
2018-05-21T07:02:51.403Z,5.19
2018-05-21T07:05:22.406Z,5.03
2018-05-21T07:07:53.522Z,4.37
2018-05-21T07:10:24.527Z,4.09
2018-05-21T07:12:55.539Z,3.86
2018-05-21T07:15:26.574Z,3.39
2018-05-21T07:17:57.602Z,3.87
2018-05-21T07:20:28.667Z,3.77
2018-05-21T07:22:59.750Z,3.85
2018-05-21T07:25:30.726Z,3.63
2018-05-21T07:28:01.805Z,3.26
2018-05-21T07:30:32.842Z,3.09
2018-05-21T07:33:03.884Z,3.69
2018-05-21T07:35:35.909Z,3.40
2018-05-21T07:38:07.451Z,3.23
2018-05-21T07:40:38.701Z,3.62
2018-05-21T07:43:09.952Z,3.68
2018-05-21T07:45:41.128Z,3.28
2018-05-21T07:48:12.348Z,2.66
2018-05-21T07:50:43.673Z,2.91
2018-05-21T07:53:15.007Z,3.38
2018-05-21T07:55:46.165Z,3.27
2018-05-21T07:58:17.269Z,3.59
2018-05-21T08:00:48.720Z,3.61
2018-05-21T08:03:19.747Z,3.34
2018-05-21T08:05:50.782Z,3.17
2018-05-21T08:08:21.850Z,3.42
2018-05-21T08:10:52.893Z,3.59
2018-05-21T08:16:19.958Z,2.58
2018-05-21T08:18:50.989Z,3.01
2018-05-21T08:21:22.050Z,2.57
2018-05-21T08:23:53.061Z,2.62
2018-05-21T08:26:24.119Z,2.38
2018-05-21T08:28:55.128Z,2.83
2018-05-21T08:31:26.200Z,3.13
2018-05-21T08:33:57.240Z,3.39
2018-05-21T08:36:28.274Z,2.76
2018-05-21T08:38:59.307Z,2.93
2018-05-21T08:41:30.370Z,2.94
2018-05-21T08:44:01.376Z,2.59
2018-05-21T08:46:32.443Z,2.38
2018-05-21T08:49:03.496Z,2.87
2018-05-21T08:51:34.534Z,3.13
2018-05-21T08:54:05.511Z,3.50
2018-05-21T08:56:36.648Z,3.71
2018-05-21T08:59:07.611Z,3.93
2018-05-21T09:01:38.652Z,4.23
2018-05-21T09:04:09.714Z,4.05
2018-05-21T09:06:40.712Z,3.81
2018-05-21T09:09:11.783Z,3.18
2018-05-21T09:11:42.802Z,3.01
2018-05-21T09:14:13.801Z,3.29
2018-05-21T09:16:44.899Z,3.72
2018-05-21T09:19:16.040Z,3.62
2018-05-21T09:21:47.124Z,3.53
2018-05-21T09:24:18.343Z,3.06
2018-05-21T09:26:49.390Z,4.02
2018-05-21T09:29:20.455Z,4.11
2018-05-21T09:31:51.499Z,4.13
2018-05-21T09:34:22.468Z,4.14
2018-05-21T09:36:53.535Z,4.99
2018-05-21T09:39:24.548Z,5.13
2018-05-21T09:41:55.611Z,4.80
2018-05-21T09:44:26.563Z,4.16
2018-05-21T09:46:57.605Z,4.10
2018-05-21T09:49:28.592Z,4.26
2018-05-21T09:51:59.637Z,4.53
2018-05-21T09:54:30.637Z,5.04
2018-05-21T09:57:01.660Z,5.43
2018-05-21T09:59:32.660Z,5.39
2018-05-21T10:02:03.687Z,5.44
2018-05-21T10:04:34.700Z,5.59
2018-05-21T10:07:05.745Z,5.75
2018-05-21T10:09:36.882Z,5.84
2018-05-21T10:12:07.931Z,5.63
2018-05-21T10:14:39.004Z,5.30
2018-05-21T10:17:10.033Z,5.50
2018-05-21T10:19:41.133Z,5.57
2018-05-21T10:22:12.198Z,6.14
2018-05-21T10:24:43.270Z,6.55
2018-05-21T10:27:21.420Z,7.27
2018-05-21T10:29:52.486Z,7.39
2018-05-21T10:32:23.536Z,7.30
2018-05-21T10:34:54.556Z,7.74
2018-05-21T10:37:25.681Z,7.53
2018-05-21T10:39:56.686Z,7.68
2018-05-21T10:42:27.703Z,7.75
2018-05-21T10:44:58.700Z,7.96
2018-05-21T10:47:29.747Z,7.61
2018-05-21T10:50:00.780Z,6.93
2018-05-21T10:52:31.842Z,7.35
2018-05-21T10:55:02.900Z,8.76
2018-05-21T10:57:33.967Z,10.72
2018-05-21T11:00:05.001Z,13.56
2018-05-21T11:02:36.012Z,15.80
2018-05-21T11:05:07.010Z,18.01
2018-05-21T11:07:38.100Z,19.09
2018-05-21T11:10:09.150Z,20.02
2018-05-21T11:12:40.176Z,21.11
2018-05-21T11:15:11.261Z,21.75
2018-05-21T11:17:42.282Z,22.29
2018-05-21T11:20:13.306Z,21.82
2018-05-21T11:22:44.383Z,22.35
2018-05-21T11:25:15.394Z,22.60
2018-05-21T11:27:46.462Z,22.53
2018-05-21T11:30:17.468Z,22.57
2018-05-21T11:32:48.508Z,22.76
2018-05-21T11:35:19.554Z,22.81
2018-05-21T11:37:50.600Z,22.51
2018-05-21T11:40:21.646Z,22.71
2018-05-21T11:42:52.739Z,23.19
2018-05-21T11:45:23.750Z,23.76
2018-05-21T11:47:57.744Z,23.48
2018-05-21T11:50:28.726Z,23.18
2018-05-21T11:52:59.750Z,23.03
2018-05-21T11:55:30.713Z,22.87
2018-05-21T11:58:01.811Z,22.24
2018-05-21T12:00:32.799Z,21.96
2018-05-21T12:03:03.834Z,21.47
2018-05-21T12:05:34.859Z,21.79
2018-05-21T12:08:05.862Z,20.88
2018-05-21T12:10:36.893Z,21.18
2018-05-21T12:13:07.929Z,21.72
2018-05-21T12:15:38.980Z,21.24
2018-05-21T12:18:10.001Z,20.74
2018-05-21T12:20:41.064Z,20.75
2018-05-21T12:23:12.116Z,20.71
2018-05-21T12:25:43.150Z,20.61
2018-05-21T12:28:14.140Z,20.24
2018-05-21T12:30:45.186Z,19.80
2018-05-21T12:33:16.273Z,20.36
2018-05-21T12:35:47.267Z,20.77
2018-05-21T12:38:18.281Z,21.42
2018-05-21T12:40:49.336Z,22.63
2018-05-21T12:43:20.379Z,22.39
2018-05-21T12:45:58.328Z,22.53
2018-05-21T12:48:29.405Z,23.02
2018-05-21T12:51:00.464Z,22.02
2018-05-21T12:53:31.519Z,21.78
2018-05-21T12:56:02.576Z,21.21
2018-05-21T12:58:33.660Z,20.52
2018-05-21T13:01:04.682Z,20.44
2018-05-21T13:03:35.673Z,20.39
2018-05-21T13:06:06.740Z,19.98
2018-05-21T13:08:37.799Z,19.92
2018-05-21T13:11:08.877Z,19.91
2018-05-21T13:13:39.922Z,19.76
2018-05-21T13:16:10.953Z,19.63
2018-05-21T13:18:42.071Z,19.55
2018-05-21T13:21:13.145Z,19.01
2018-05-21T13:23:44.212Z,19.30
2018-05-21T13:26:15.220Z,19.14
2018-05-21T13:28:46.227Z,19.72
2018-05-21T13:31:17.225Z,19.43
2018-05-21T13:33:48.272Z,19.77
2018-05-21T13:36:19.282Z,19.89
2018-05-21T13:38:50.280Z,19.74
2018-05-21T13:41:21.279Z,19.08
2018-05-21T13:43:52.336Z,18.87
2018-05-21T13:46:23.435Z,18.71
2018-05-21T13:48:54.474Z,18.73
2018-05-21T13:51:25.507Z,18.40
2018-05-21T13:53:56.611Z,17.82
2018-05-21T13:56:27.625Z,17.62
2018-05-21T13:58:58.708Z,17.83
2018-05-21T14:01:29.664Z,18.28
2018-05-21T14:04:00.744Z,18.54
2018-05-21T14:06:31.767Z,18.33
2018-05-21T14:09:02.902Z,18.37
2018-05-21T14:11:33.935Z,18.75
2018-05-21T14:14:04.998Z,18.12
2018-05-21T14:16:35.998Z,18.33
2018-05-21T14:19:07.050Z,18.67
2018-05-21T14:21:38.061Z,19.43
2018-05-21T14:24:09.084Z,20.26
2018-05-21T14:26:40.066Z,19.90
2018-05-21T14:29:11.090Z,20.33
2018-05-21T14:31:42.165Z,21.02
2018-05-21T14:34:13.258Z,21.41
2018-05-21T14:36:44.334Z,20.91
2018-05-21T14:39:15.451Z,19.64
2018-05-21T14:41:46.596Z,18.85
2018-05-21T14:44:17.615Z,18.06
2018-05-21T14:46:48.658Z,17.56
2018-05-21T14:49:19.691Z,17.40
2018-05-21T14:51:50.714Z,17.79
2018-05-21T14:54:21.758Z,17.49
2018-05-21T14:56:52.793Z,17.95
2018-05-21T14:59:23.779Z,17.50
2018-05-21T15:01:54.800Z,17.81
2018-05-21T15:04:25.814Z,17.61
2018-05-21T15:06:56.819Z,17.70
2018-05-21T15:09:27.855Z,18.00
2018-05-21T15:11:58.928Z,18.53
2018-05-21T15:14:29.953Z,18.64
2018-05-21T15:17:00.939Z,18.71
2018-05-21T15:19:32.007Z,18.33
2018-05-21T15:22:03.039Z,18.03
2018-05-21T15:24:34.024Z,17.82
2018-05-21T15:27:12.060Z,17.81
2018-05-21T15:29:43.105Z,18.06
2018-05-21T15:32:14.173Z,18.29
2018-05-21T15:34:45.225Z,18.38
2018-05-21T15:37:16.293Z,18.79
2018-05-21T15:39:47.336Z,18.88
2018-05-21T15:42:18.430Z,19.00
2018-05-21T15:44:49.470Z,19.27
2018-05-21T15:47:20.552Z,19.30
2018-05-21T15:49:51.536Z,19.31
2018-05-21T15:52:22.608Z,19.92
2018-05-21T15:54:53.677Z,19.94
2018-05-21T15:57:24.716Z,19.89
2018-05-21T15:59:55.838Z,19.71
2018-05-21T16:02:26.864Z,19.81
2018-05-21T16:04:57.876Z,20.03
2018-05-21T16:07:28.892Z,19.70
2018-05-21T16:09:59.907Z,19.46
2018-05-21T16:12:30.990Z,19.44
2018-05-21T16:15:02.004Z,19.71
2018-05-21T16:17:32.986Z,20.06
2018-05-21T16:20:04.040Z,20.33
2018-05-21T16:22:35.036Z,20.28
2018-05-21T16:25:06.068Z,20.43
2018-05-21T16:27:37.084Z,21.10
2018-05-21T16:30:08.204Z,21.03
2018-05-21T16:32:39.149Z,21.46
2018-05-21T16:35:10.123Z,21.73
2018-05-21T16:37:41.141Z,21.50
2018-05-21T16:40:12.156Z,21.52
2018-05-21T16:42:43.151Z,21.35
2018-05-21T16:45:14.229Z,22.69
2018-05-21T16:47:45.407Z,23.11
2018-05-21T16:50:16.423Z,23.80
2018-05-21T16:52:47.430Z,24.08
2018-05-21T16:55:18.473Z,24.88
2018-05-21T16:57:49.519Z,24.92
2018-05-21T17:00:20.524Z,25.60
2018-05-21T17:02:51.527Z,25.68
2018-05-21T17:05:22.513Z,26.12
2018-05-21T17:07:53.581Z,26.41
2018-05-21T17:10:24.553Z,26.58
2018-05-21T17:15:37.635Z,27.27
2018-05-21T17:18:08.618Z,27.54
2018-05-21T17:20:39.675Z,28.32
2018-05-21T17:23:10.668Z,29.05
2018-05-21T17:25:41.682Z,29.48
2018-05-21T17:28:12.712Z,30.01
2018-05-21T17:30:43.769Z,30.32
2018-05-21T17:33:14.750Z,30.36
2018-05-21T17:35:45.768Z,30.56
2018-05-21T17:38:16.756Z,31.12
2018-05-21T17:40:47.778Z,31.28
2018-05-21T17:43:18.785Z,31.17
2018-05-21T17:45:49.826Z,31.37
2018-05-21T17:48:20.830Z,31.53
2018-05-21T17:50:51.800Z,31.84
2018-05-21T17:53:22.819Z,32.34
2018-05-21T17:55:55.827Z,32.37
2018-05-21T17:58:26.860Z,32.21
2018-05-21T18:00:57.931Z,32.24
2018-05-21T18:03:29.058Z,32.48
2018-05-21T18:06:00.097Z,32.64
2018-05-21T18:08:31.119Z,32.72
2018-05-21T18:11:02.237Z,32.53
2018-05-21T18:13:33.265Z,32.45
2018-05-21T18:16:04.289Z,32.38
2018-05-21T18:18:35.264Z,32.52
2018-05-21T18:21:06.269Z,32.74
2018-05-21T18:23:37.313Z,32.74
2018-05-21T18:26:08.383Z,33.05
2018-05-21T18:28:39.376Z,33.33
2018-05-21T18:31:10.398Z,33.57
2018-05-21T18:33:41.384Z,33.95
2018-05-21T18:36:12.454Z,34.48
2018-05-21T18:38:43.485Z,34.91
2018-05-21T18:41:14.532Z,35.74
2018-05-21T18:43:45.568Z,36.41
2018-05-21T18:46:16.581Z,36.38
2018-05-21T18:48:47.596Z,36.33
2018-05-21T18:51:18.661Z,36.33
2018-05-21T18:53:49.779Z,36.07
2018-05-21T18:56:20.776Z,36.22
2018-05-21T18:58:51.808Z,36.25
2018-05-21T19:01:22.820Z,36.80
2018-05-21T19:03:53.834Z,37.09
2018-05-21T19:06:24.827Z,37.13
2018-05-21T19:08:55.890Z,37.44
2018-05-21T19:11:26.993Z,37.66
2018-05-21T19:13:58.051Z,37.49
2018-05-21T19:16:29.143Z,37.70
2018-05-21T19:19:00.158Z,38.07
2018-05-21T19:21:31.218Z,38.38
2018-05-21T19:24:02.209Z,38.54
2018-05-21T19:26:33.215Z,38.72
2018-05-21T19:29:04.277Z,38.66
2018-05-21T19:31:35.295Z,39.03
2018-05-21T19:34:06.310Z,39.41
2018-05-21T19:36:44.180Z,39.34
2018-05-21T19:39:15.243Z,39.55
2018-05-21T19:41:46.239Z,39.67
2018-05-21T19:44:17.246Z,39.64
2018-05-21T19:46:48.299Z,39.62
2018-05-21T19:49:19.322Z,39.56
2018-05-21T19:51:50.380Z,39.63
2018-05-21T19:54:21.375Z,39.73
2018-05-21T19:56:52.412Z,39.85
2018-05-21T19:59:23.471Z,39.97
2018-05-21T20:01:54.491Z,40.55
2018-05-21T20:04:25.540Z,40.52
2018-05-21T20:06:56.554Z,40.53
2018-05-21T20:09:27.591Z,40.86
2018-05-21T20:11:58.578Z,41.03
2018-05-21T20:14:29.626Z,41.03
2018-05-21T20:17:00.670Z,41.55
2018-05-21T20:19:31.626Z,41.63
2018-05-21T20:22:02.679Z,41.94
2018-05-21T20:24:33.667Z,41.95
2018-05-21T20:27:04.715Z,42.08
2018-05-21T20:29:35.756Z,42.29
2018-05-21T20:32:06.741Z,42.20
2018-05-21T20:34:37.794Z,42.21
2018-05-21T20:37:08.911Z,42.33
2018-05-21T20:39:39.891Z,42.30
2018-05-21T20:42:10.920Z,42.52
2018-05-21T20:44:41.939Z,42.69
2018-05-21T20:47:12.995Z,42.75
2018-05-21T20:49:44.094Z,42.70
2018-05-21T20:52:15.086Z,42.75
2018-05-21T20:54:46.074Z,42.94
2018-05-21T20:57:17.188Z,42.80
2018-05-21T20:59:48.180Z,43.08
2018-05-21T21:02:19.214Z,43.12
2018-05-21T21:04:50.217Z,43.13
2018-05-21T21:07:21.266Z,43.25
2018-05-21T21:09:52.304Z,43.57
2018-05-21T21:12:23.366Z,43.66
2018-05-21T21:14:54.389Z,43.86
2018-05-21T21:17:25.404Z,43.98
2018-05-21T21:19:56.392Z,44.18
2018-05-21T21:22:27.435Z,44.58
2018-05-21T21:24:58.437Z,45.19
2018-05-21T21:27:29.440Z,45.65
2018-05-21T21:30:00.467Z,45.77
2018-05-21T21:32:31.489Z,45.70
2018-05-21T21:35:02.542Z,46.00
2018-05-21T21:37:33.639Z,46.33
2018-05-21T21:40:04.691Z,46.46
2018-05-21T21:42:35.702Z,46.27
2018-05-21T21:45:06.701Z,46.30
2018-05-21T21:47:37.743Z,46.12
2018-05-21T21:50:08.750Z,46.25
2018-05-21T21:52:39.808Z,46.59
2018-05-21T21:55:10.791Z,46.75
2018-05-21T21:57:41.816Z,46.88
2018-05-21T22:00:12.864Z,46.91
2018-05-21T22:02:43.907Z,46.97
2018-05-21T22:05:14.922Z,47.29
2018-05-21T22:07:45.956Z,47.70
2018-05-21T22:10:16.906Z,47.95
2018-05-21T22:12:47.902Z,47.84
2018-05-21T22:15:18.873Z,48.15
2018-05-21T22:17:49.906Z,48.37
2018-05-21T22:20:20.923Z,48.54
2018-05-21T22:22:51.983Z,48.67
2018-05-21T22:25:22.967Z,48.63
2018-05-21T22:27:54.031Z,48.75
2018-05-21T22:30:25.007Z,48.84
2018-05-21T22:32:56.031Z,48.70
2018-05-21T22:35:27.032Z,48.77
2018-05-21T22:37:58.063Z,48.83
2018-05-21T22:40:29.043Z,48.74
2018-05-21T22:43:00.103Z,48.95
2018-05-21T22:45:31.122Z,48.96
2018-05-21T22:48:02.192Z,48.85
2018-05-21T22:50:33.191Z,49.38
2018-05-21T22:53:04.260Z,49.30
2018-05-21T22:55:35.286Z,49.33
2018-05-21T22:58:06.272Z,49.38
2018-05-21T23:00:37.332Z,49.41
2018-05-21T23:03:08.327Z,49.53
2018-05-21T23:05:39.372Z,49.67
2018-05-21T23:08:10.339Z,49.94
2018-05-21T23:10:41.380Z,50.18
2018-05-21T23:13:12.368Z,50.31
2018-05-21T23:15:43.446Z,50.42
2018-05-21T23:18:14.414Z,50.49
2018-05-21T23:20:45.454Z,50.40
2018-05-21T23:23:16.460Z,50.44
2018-05-21T23:25:47.533Z,50.36
2018-05-21T23:28:18.522Z,50.76
2018-05-21T23:30:49.538Z,50.83
2018-05-21T23:33:20.601Z,51.27
2018-05-21T23:35:51.583Z,51.55
2018-05-21T23:38:22.561Z,51.47
2018-05-21T23:40:53.588Z,51.48
2018-05-21T23:43:24.673Z,51.64
2018-05-21T23:45:55.605Z,51.80
2018-05-21T23:48:26.652Z,51.97
2018-05-21T23:50:57.728Z,51.99
2018-05-21T23:53:28.735Z,51.91
2018-05-21T23:55:59.692Z,52.06
2018-05-21T23:58:30.725Z,52.21
